Time;durP1;ratioP1;P1;durP2;ratioP2;P2;SDS_P1;SDS_P2;PMS_P1;PMS_P2;Temp;Humidity;BMP_temperature;BMP_pressure;BME280_temperature;BME280_humidity;BME280_pressure;Samples;Min_cycle;Max_cycle;Signal;HPM_P1;HPM_P2
2022/03/20 00:01:34;;;;;;;19.20;8.05;;;;;;;;;;5031189;27;101703;-71
2022/03/20 00:04:01;;;;;;;16.40;7.10;;;;;;;;;;5031803;27;100306;-71
2022/03/20 00:06:27;;;;;;;16.00;7.45;;;;;;;;;;5032030;27;100243;-71
2022/03/20 00:08:56;;;;;;;12.45;6.53;;;;;;;;;;5014355;27;100173;-71
2022/03/20 00:11:23;;;;;;;22.10;8.52;;;;;;;;;;4997310;27;100558;-73
2022/03/20 00:13:52;;;;;;;17.50;7.85;;;;;;;;;;5032429;27;100019;-72
2022/03/20 00:16:19;;;;;;;26.02;10.38;;;;;;;;;;5032274;27;100068;-72
2022/03/20 00:18:46;;;;;;;20.00;10.18;;;;;;;;;;5031874;27;100204;-72
2022/03/20 00:21:13;;;;;;;20.88;9.70;;;;;;;;;;5013521;27;100752;-72
2022/03/20 00:23:40;;;;;;;23.30;9.85;;;;;;;;;;4980192;27;100387;-71
2022/03/20 00:26:07;;;;;;;23.42;10.07;;;;;;;;;;4997736;27;100411;-73
2022/03/20 00:28:33;;;;;;;31.23;11.85;;;;;;;;;;5031308;27;100297;-70
2022/03/20 00:31:00;;;;;;;23.70;10.02;;;;;;;;;;4997190;27;100655;-72
2022/03/20 00:33:27;;;;;;;22.58;10.25;;;;;;;;;;5031996;27;100215;-71
2022/03/20 00:35:54;;;;;;;20.05;9.68;;;;;;;;;;4997771;27;100202;-71
2022/03/20 00:38:22;;;;;;;20.45;9.18;;;;;;;;;;5031306;27;100515;-71
2022/03/20 00:40:49;;;;;;;25.92;9.80;;;;;;;;;;4997384;27;100655;-71
2022/03/20 00:43:15;;;;;;;25.20;10.95;;;;;;;;;;5031856;27;100196;-71
2022/03/20 00:45:43;;;;;;;25.48;10.55;;;;;;;;;;4978373;27;100147;-71
2022/03/20 00:48:10;;;;;;;21.88;10.30;;;;;;;;;;4996993;27;100809;-72
2022/03/20 00:50:37;;;;;;;29.10;11.27;;;;;;;;;;5031343;27;100601;-71
2022/03/20 00:53:03;;;;;;;26.17;10.55;;;;;;;;;;5031378;27;100836;-73
2022/03/20 00:55:30;;;;;;;25.23;11.07;;;;;;;;;;4996697;27;100795;-71
2022/03/20 00:57:58;;;;;;;32.50;12.23;;;;;;;;;;4980928;27;100246;-71
2022/03/20 01:00:25;;;;;;;27.65;11.30;;;;;;;;;;5013489;27;100767;-71
2022/03/20 01:02:51;;;;;;;28.40;11.32;;;;;;;;;;5010078;28;100416;-71
2022/03/20 01:05:19;;;;;;;21.92;10.15;;;;;;;;;;4960708;28;100135;-71
2022/03/20 01:07:46;;;;;;;26.27;10.93;;;;;;;;;;4992721;28;100622;-71
2022/03/20 01:10:13;;;;;;;26.38;11.20;;;;;;;;;;5011491;28;100586;-70
2022/03/20 01:12:41;;;;;;;22.65;9.15;;;;;;;;;;4993671;28;100207;-72
2022/03/20 01:15:10;;;;;;;31.85;11.93;;;;;;;;;;5010456;28;100210;-71
2022/03/20 01:17:37;;;;;;;27.25;11.20;;;;;;;;;;5012255;28;100499;-70
2022/03/20 01:20:05;;;;;;;19.10;9.20;;;;;;;;;;5007310;28;101156;-71
2022/03/20 01:22:32;;;;;;;25.33;10.40;;;;;;;;;;5013083;28;100123;-71
2022/03/20 01:25:00;;;;;;;25.13;10.82;;;;;;;;;;5014726;28;99999;-71
2022/03/20 01:27:26;;;;;;;22.95;9.98;;;;;;;;;;5014319;28;103784;-71
2022/03/20 01:29:54;;;;;;;28.73;11.45;;;;;;;;;;5014244;28;100595;-71
2022/03/20 01:32:21;;;;;;;28.40;11.25;;;;;;;;;;5014767;28;100191;-71
2022/03/20 01:34:50;;;;;;;31.05;11.32;;;;;;;;;;4997347;28;100167;-71
2022/03/20 01:37:16;;;;;;;27.60;10.30;;;;;;;;;;5012879;28;101331;-72
2022/03/20 01:39:43;;;;;;;31.20;12.38;;;;;;;;;;5013755;28;100604;-70
2022/03/20 01:42:10;;;;;;;25.10;11.38;;;;;;;;;;5013127;28;100206;-71
2022/03/20 01:44:37;;;;;;;32.50;13.00;;;;;;;;;;4993021;28;102577;-71
2022/03/20 01:47:08;;;;;;;25.25;11.63;;;;;;;;;;5013008;28;100410;-71
2022/03/20 01:49:35;;;;;;;33.40;13.35;;;;;;;;;;5013750;28;100612;-72
2022/03/20 01:52:23;;;;;;;22.83;11.23;;;;;;;;;;5009705;28;100254;-69
2022/03/20 01:54:50;;;;;;;23.55;11.20;;;;;;;;;;5012381;28;100125;-70
2022/03/20 01:57:17;;;;;;;27.48;10.85;;;;;;;;;;4995281;28;100203;-70
2022/03/20 01:59:44;;;;;;;28.00;12.38;;;;;;;;;;5012247;28;101035;-70
2022/03/20 02:02:12;;;;;;;21.75;10.25;;;;;;;;;;4992452;28;100435;-70
2022/03/20 02:04:39;;;;;;;24.40;11.57;;;;;;;;;;5013501;28;102511;-70
2022/03/20 02:07:06;;;;;;;28.10;11.52;;;;;;;;;;5011250;28;100272;-70
2022/03/20 02:09:37;;;;;;;26.20;11.98;;;;;;;;;;4995060;28;101196;-70
2022/03/20 02:12:04;;;;;;;22.67;10.55;;;;;;;;;;4995673;28;100186;-70
2022/03/20 02:14:33;;;;;;;23.90;10.93;;;;;;;;;;4994961;28;100144;-71
2022/03/20 02:17:00;;;;;;;25.33;11.45;;;;;;;;;;5010176;28;100415;-71
2022/03/20 02:19:27;;;;;;;22.92;11.88;;;;;;;;;;5011435;28;100696;-70
2022/03/20 02:21:55;;;;;;;27.00;11.60;;;;;;;;;;5011781;28;100146;-71
2022/03/20 02:24:32;;;;;;;25.83;11.73;;;;;;;;;;4995319;28;100290;-70
2022/03/20 02:27:06;;;;;;;34.50;14.48;;;;;;;;;;5011224;28;100115;-71
2022/03/20 02:29:33;;;;;;;28.77;12.25;;;;;;;;;;4994411;28;100983;-71
2022/03/20 02:32:00;;;;;;;22.70;10.43;;;;;;;;;;5012136;28;100140;-71
2022/03/20 02:34:27;;;;;;;24.27;11.25;;;;;;;;;;4995357;28;100195;-71
2022/03/20 02:36:58;;;;;;;29.33;13.20;;;;;;;;;;5010428;28;100220;-70
2022/03/20 02:39:24;;;;;;;35.00;14.95;;;;;;;;;;4994200;28;101166;-71
2022/03/20 02:41:51;;;;;;;26.17;12.40;;;;;;;;;;5011371;28;100221;-71
2022/03/20 02:44:18;;;;;;;25.67;12.73;;;;;;;;;;4976498;28;100226;-71
2022/03/20 02:46:45;;;;;;;34.85;13.30;;;;;;;;;;5010362;28;100364;-71
2022/03/20 02:49:13;;;;;;;26.33;12.05;;;;;;;;;;5011493;28;100672;-71
2022/03/20 02:51:39;;;;;;;30.00;12.95;;;;;;;;;;5011410;28;100207;-71
2022/03/20 02:54:07;;;;;;;27.67;11.80;;;;;;;;;;5011367;28;100103;-71
2022/03/20 02:56:39;;;;;;;33.95;14.60;;;;;;;;;;5010734;28;100895;-71
2022/03/20 02:59:07;;;;;;;27.20;11.98;;;;;;;;;;5011031;28;101060;-70
2022/03/20 03:01:33;;;;;;;30.65;12.98;;;;;;;;;;5018156;28;100288;-71
2022/03/20 03:04:00;;;;;;;37.33;15.90;;;;;;;;;;5031037;28;100106;-70
2022/03/20 03:06:27;;;;;;;30.08;13.05;;;;;;;;;;5014611;28;103510;-71
2022/03/20 03:11:39;;;;;;;29.50;13.02;;;;;;;;;;5033623;27;101507;-71
2022/03/20 03:15:19;;;;;;;31.70;13.30;;;;;;;;;;5016175;28;100201;-71
2022/03/20 03:16:53;;;;;;;26.45;11.20;;;;;;;;;;5032058;28;100246;-72
2022/03/20 03:19:21;;;;;;;30.80;13.68;;;;;;;;;;5032884;28;100598;-71
2022/03/20 03:21:48;;;;;;;33.65;14.32;;;;;;;;;;5031594;28;99863;-71
2022/03/20 03:24:14;;;;;;;30.70;14.48;;;;;;;;;;5033317;27;100024;-71
2022/03/20 03:26:41;;;;;;;29.35;13.35;;;;;;;;;;5031258;28;100825;-71
2022/03/20 03:29:08;;;;;;;33.15;14.13;;;;;;;;;;5032624;28;100695;-71
2022/03/20 03:31:35;;;;;;;27.05;12.73;;;;;;;;;;5032172;28;99960;-71
2022/03/20 03:36:47;;;;;;;34.88;15.25;;;;;;;;;;5013562;28;102599;-70
2022/03/20 03:39:14;;;;;;;33.58;13.10;;;;;;;;;;5010953;28;100651;-71
2022/03/20 03:41:41;;;;;;;33.22;15.07;;;;;;;;;;5011957;28;103199;-71
2022/03/20 03:44:08;;;;;;;30.38;12.43;;;;;;;;;;5011688;28;100090;-71
2022/03/20 03:46:35;;;;;;;35.08;16.27;;;;;;;;;;5011712;28;100238;-71
2022/03/20 03:49:02;;;;;;;34.10;14.38;;;;;;;;;;5010446;28;102688;-71
2022/03/20 03:51:29;;;;;;;32.53;12.70;;;;;;;;;;4961610;28;100746;-71
2022/03/20 03:53:56;;;;;;;37.65;14.52;;;;;;;;;;5011179;28;100221;-71
2022/03/20 03:56:23;;;;;;;23.60;9.82;;;;;;;;;;5011418;28;102392;-71
2022/03/20 03:58:50;;;;;;;30.50;12.75;;;;;;;;;;5010704;28;100580;-71
2022/03/20 04:01:16;;;;;;;34.95;13.65;;;;;;;;;;4994594;28;100098;-71
2022/03/20 04:03:43;;;;;;;32.13;12.13;;;;;;;;;;5011265;28;100090;-71
2022/03/20 04:06:10;;;;;;;24.55;11.98;;;;;;;;;;4994292;28;100336;-71
2022/03/20 04:08:37;;;;;;;25.75;11.00;;;;;;;;;;5011904;28;101181;-71
2022/03/20 04:11:05;;;;;;;25.98;11.55;;;;;;;;;;5010546;28;100131;-70
2022/03/20 04:13:32;;;;;;;22.80;11.80;;;;;;;;;;5011345;28;100003;-70
2022/03/20 04:15:58;;;;;;;21.98;11.40;;;;;;;;;;4994327;28;100177;-70
2022/03/20 04:18:25;;;;;;;32.97;13.98;;;;;;;;;;5011584;28;100686;-71
2022/03/20 04:20:52;;;;;;;27.33;11.75;;;;;;;;;;5012036;28;100174;-71
2022/03/20 04:26:05;;;;;;;32.83;13.85;;;;;;;;;;4996739;28;100254;-71
2022/03/20 04:28:32;;;;;;;30.42;14.15;;;;;;;;;;5006658;28;100530;-71
2022/03/20 04:30:59;;;;;;;34.88;14.23;;;;;;;;;;4994509;28;100199;-71
2022/03/20 04:33:27;;;;;;;32.30;13.68;;;;;;;;;;5012046;28;100024;-71
2022/03/20 04:35:54;;;;;;;30.70;12.80;;;;;;;;;;4993611;28;102949;-71
2022/03/20 04:38:21;;;;;;;30.80;12.80;;;;;;;;;;5011756;28;100585;-73
2022/03/20 04:40:49;;;;;;;27.48;12.93;;;;;;;;;;4961212;28;100106;-71
2022/03/20 04:43:17;;;;;;;34.80;15.80;;;;;;;;;;5012130;28;100030;-71
2022/03/20 04:45:44;;;;;;;34.55;14.27;;;;;;;;;;5010241;28;100314;-70
2022/03/20 04:59:13;;;;;;;30.98;12.98;;;;;;;;;;5010279;28;100580;-71
2022/03/20 05:01:39;;;;;;;31.02;13.20;;;;;;;;;;5010899;28;100136;-71
2022/03/20 05:04:07;;;;;;;25.58;11.15;;;;;;;;;;5010164;28;100033;-71
2022/03/20 05:06:34;;;;;;;29.80;13.38;;;;;;;;;;5009756;28;100454;-71
2022/03/20 05:14:31;;;;;;;30.90;14.25;;;;;;;;;;5011738;28;100103;-71
2022/03/20 05:17:06;;;;;;;34.28;14.93;;;;;;;;;;5009708;28;100361;-71
2022/03/20 05:19:37;;;;;;;32.22;14.38;;;;;;;;;;4993832;28;100593;-71
2022/03/20 05:22:05;;;;;;;34.38;16.83;;;;;;;;;;5010276;28;100044;-71
2022/03/20 05:24:34;;;;;;;33.60;16.45;;;;;;;;;;5011109;28;99911;-71
2022/03/20 05:27:01;;;;;;;57.75;24.67;;;;;;;;;;4992785;28;100175;-71
2022/03/20 05:29:28;;;;;;;41.70;19.33;;;;;;;;;;5009421;28;101837;-71
2022/03/20 05:31:55;;;;;;;40.17;18.35;;;;;;;;;;5011390;28;100073;-71
2022/03/20 05:34:22;;;;;;;28.73;13.93;;;;;;;;;;5010710;28;100065;-71
2022/03/20 05:36:49;;;;;;;28.52;13.77;;;;;;;;;;5009929;28;100526;-71
2022/03/20 05:39:16;;;;;;;33.35;14.00;;;;;;;;;;4976943;28;100693;-71
2022/03/20 05:41:46;;;;;;;32.92;15.13;;;;;;;;;;4977148;28;100202;-71
2022/03/20 05:44:13;;;;;;;29.35;12.98;;;;;;;;;;5011432;28;100243;-71
2022/03/20 05:46:40;;;;;;;33.58;14.38;;;;;;;;;;4976027;28;100455;-71
2022/03/20 05:49:07;;;;;;;31.80;14.80;;;;;;;;;;5010709;28;100620;-71
2022/03/20 05:51:37;;;;;;;43.30;17.73;;;;;;;;;;5010761;28;100173;-71
2022/03/20 05:54:07;;;;;;;39.80;16.90;;;;;;;;;;5009919;28;100945;-71
2022/03/20 05:59:19;;;;;;;50.97;20.77;;;;;;;;;;5015366;28;100723;-71
2022/03/20 06:01:46;;;;;;;46.08;19.83;;;;;;;;;;5028963;28;100206;-71
2022/03/20 06:04:13;;;;;;;36.45;15.75;;;;;;;;;;5015458;28;100146;-71
2022/03/20 06:06:42;;;;;;;30.73;14.43;;;;;;;;;;5034004;27;100482;-71
2022/03/20 06:09:09;;;;;;;34.05;14.98;;;;;;;;;;5033102;28;103568;-73
2022/03/20 06:11:36;;;;;;;32.38;13.65;;;;;;;;;;5017247;28;102145;-71
2022/03/20 06:14:03;;;;;;;26.73;12.68;;;;;;;;;;4996601;28;100026;-71
2022/03/20 06:16:32;;;;;;;24.77;11.68;;;;;;;;;;5011627;28;101649;-71
2022/03/20 06:19:00;;;;;;;28.63;13.75;;;;;;;;;;5012393;28;100828;-71
2022/03/20 06:21:27;;;;;;;33.45;14.95;;;;;;;;;;5012925;28;100051;-72
2022/03/20 06:23:54;;;;;;;28.25;15.25;;;;;;;;;;4996516;28;100153;-71
2022/03/20 06:26:23;;;;;;;21.90;11.73;;;;;;;;;;5012477;28;100185;-71
2022/03/20 06:28:50;;;;;;;21.70;10.75;;;;;;;;;;5012672;28;100612;-71
2022/03/20 06:31:19;;;;;;;21.35;10.38;;;;;;;;;;4979859;28;100236;-71
2022/03/20 06:33:57;;;;;;;18.77;9.13;;;;;;;;;;5012800;28;100392;-72
2022/03/20 06:36:24;;;;;;;19.92;9.35;;;;;;;;;;5012344;28;100166;-71
2022/03/20 06:38:51;;;;;;;23.48;10.50;;;;;;;;;;5012377;28;100669;-71
2022/03/20 06:41:18;;;;;;;27.17;12.68;;;;;;;;;;4995694;28;100112;-72
2022/03/20 06:43:45;;;;;;;29.98;14.23;;;;;;;;;;5023343;28;100777;-72
2022/03/20 06:46:12;;;;;;;24.92;13.05;;;;;;;;;;5014929;28;100404;-72
2022/03/20 06:48:51;;;;;;;36.58;17.33;;;;;;;;;;5032624;28;101200;-72
2022/03/20 06:51:18;;;;;;;34.88;16.80;;;;;;;;;;5016125;28;100063;-72
2022/03/20 06:53:45;;;;;;;32.53;16.30;;;;;;;;;;5008442;28;100135;-72
2022/03/20 06:56:12;;;;;;;31.38;15.30;;;;;;;;;;4995427;28;100227;-72
2022/03/20 06:58:39;;;;;;;30.15;14.25;;;;;;;;;;5012336;28;100655;-72
2022/03/20 07:01:08;;;;;;;29.80;14.02;;;;;;;;;;4996807;27;100220;-71
2022/03/20 07:03:35;;;;;;;30.33;14.43;;;;;;;;;;5016182;27;100027;-71
2022/03/20 07:06:03;;;;;;;36.63;16.95;;;;;;;;;;5014202;27;100146;-71
2022/03/20 07:08:29;;;;;;;37.25;19.17;;;;;;;;;;4998556;27;100691;-71
2022/03/20 07:10:57;;;;;;;34.78;17.13;;;;;;;;;;5015843;27;100012;-72
2022/03/20 07:16:14;;;;;;;24.90;13.70;;;;;;;;;;5017231;27;100296;-71
2022/03/20 07:18:42;;;;;;;26.42;12.57;;;;;;;;;;5015452;27;100661;-71
2022/03/20 07:21:09;;;;;;;26.60;11.68;;;;;;;;;;5015522;27;100082;-72
2022/03/20 07:23:37;;;;;;;23.80;12.90;;;;;;;;;;5015495;27;100116;-73
2022/03/20 07:31:34;;;;;;;22.63;10.23;;;;;;;;;;5014269;27;100209;-72
2022/03/20 07:34:02;;;;;;;23.77;11.25;;;;;;;;;;5033104;27;99990;-72
2022/03/20 07:36:29;;;;;;;21.20;11.13;;;;;;;;;;5028567;27;100817;-72
2022/03/20 07:38:56;;;;;;;19.40;10.15;;;;;;;;;;5032492;27;100574;-72
2022/03/20 07:41:22;;;;;;;24.50;11.60;;;;;;;;;;5032405;27;100108;-73
2022/03/20 07:43:50;;;;;;;22.55;11.48;;;;;;;;;;5032533;27;101552;-72
2022/03/20 07:46:16;;;;;;;18.38;9.60;;;;;;;;;;5032462;27;100314;-72
2022/03/20 07:48:44;;;;;;;17.10;9.60;;;;;;;;;;5032322;27;100604;-72
2022/03/20 07:51:12;;;;;;;20.63;10.02;;;;;;;;;;5032059;27;100275;-72
2022/03/20 07:53:38;;;;;;;16.65;7.85;;;;;;;;;;5014297;27;100091;-71
2022/03/20 07:56:05;;;;;;;12.05;6.60;;;;;;;;;;5031347;27;100216;-72
2022/03/20 07:58:32;;;;;;;10.18;5.60;;;;;;;;;;5031192;27;100752;-71
2022/03/20 08:00:59;;;;;;;11.88;5.55;;;;;;;;;;5031159;27;100185;-71
2022/03/20 08:03:27;;;;;;;9.80;5.20;;;;;;;;;;5013973;28;100257;-72
2022/03/20 08:05:54;;;;;;;9.38;5.32;;;;;;;;;;5031439;27;101989;-71
2022/03/20 08:08:21;;;;;;;9.68;5.28;;;;;;;;;;5031441;27;100833;-72
2022/03/20 08:10:51;;;;;;;9.90;5.65;;;;;;;;;;5013874;28;100044;-73
2022/03/20 08:13:21;;;;;;;11.85;5.50;;;;;;;;;;5032107;27;100057;-72
2022/03/20 08:15:49;;;;;;;12.38;5.72;;;;;;;;;;5013111;27;100426;-72
2022/03/20 08:18:16;;;;;;;9.50;5.47;;;;;;;;;;5031542;27;100559;-71
2022/03/20 08:20:44;;;;;;;10.15;5.45;;;;;;;;;;5031360;27;100091;-72
2022/03/20 08:23:11;;;;;;;8.95;5.35;;;;;;;;;;5031775;27;100129;-72
2022/03/20 08:25:39;;;;;;;10.15;5.55;;;;;;;;;;5030988;27;101462;-72
2022/03/20 08:28:09;;;;;;;10.90;6.00;;;;;;;;;;5013306;27;104145;-70
2022/03/20 08:30:36;;;;;;;15.68;7.85;;;;;;;;;;5031324;27;100002;-71
2022/03/20 08:33:06;;;;;;;10.40;6.05;;;;;;;;;;5014230;27;100165;-71
2022/03/20 08:35:33;;;;;;;11.07;5.68;;;;;;;;;;4997094;28;100315;-72
2022/03/20 08:38:00;;;;;;;13.32;5.47;;;;;;;;;;5031428;27;100691;-71
2022/03/20 08:40:27;;;;;;;11.75;5.68;;;;;;;;;;5013906;27;100103;-71
2022/03/20 08:42:54;;;;;;;12.43;5.82;;;;;;;;;;4997365;27;100100;-72
2022/03/20 08:45:23;;;;;;;10.93;5.90;;;;;;;;;;5012584;27;100270;-72
2022/03/20 08:47:50;;;;;;;11.35;5.63;;;;;;;;;;5030542;27;100752;-72
2022/03/20 08:50:18;;;;;;;10.45;5.70;;;;;;;;;;5031867;27;100064;-72
2022/03/20 08:52:46;;;;;;;10.02;5.30;;;;;;;;;;5031673;27;100486;-71
2022/03/20 08:55:13;;;;;;;9.13;5.57;;;;;;;;;;5031478;27;100308;-72
2022/03/20 08:57:41;;;;;;;8.27;4.65;;;;;;;;;;4980189;27;102031;-71
2022/03/20 09:00:09;;;;;;;10.48;5.47;;;;;;;;;;5013304;27;100294;-72
2022/03/20 09:02:36;;;;;;;9.45;5.57;;;;;;;;;;5013294;27;100107;-71
2022/03/20 09:05:05;;;;;;;9.95;5.50;;;;;;;;;;5031013;27;100458;-74
2022/03/20 09:07:32;;;;;;;10.32;5.05;;;;;;;;;;5013243;27;101093;-73
2022/03/20 09:09:59;;;;;;;9.90;5.35;;;;;;;;;;5030430;27;100231;-72
2022/03/20 09:12:26;;;;;;;9.15;4.80;;;;;;;;;;5013210;27;100198;-72
2022/03/20 09:14:53;;;;;;;9.05;4.95;;;;;;;;;;5030905;27;100820;-71
2022/03/20 09:20:06;;;;;;;10.82;5.72;;;;;;;;;;5016225;27;100127;-71
2022/03/20 09:22:34;;;;;;;9.98;5.05;;;;;;;;;;5013047;27;102693;-72
2022/03/20 09:25:01;;;;;;;9.45;4.57;;;;;;;;;;5009042;27;100256;-72
2022/03/20 09:27:28;;;;;;;7.85;4.57;;;;;;;;;;5029880;27;100796;-72
2022/03/20 09:29:59;;;;;;;8.02;4.47;;;;;;;;;;5029874;27;100106;-71
2022/03/20 09:32:25;;;;;;;8.05;4.50;;;;;;;;;;5029803;27;100173;-72
2022/03/20 09:34:52;;;;;;;10.32;5.50;;;;;;;;;;4992765;27;100761;-72
2022/03/20 09:37:19;;;;;;;11.30;4.85;;;;;;;;;;5029655;27;101191;-72
2022/03/20 09:39:46;;;;;;;8.45;4.82;;;;;;;;;;5033144;27;100237;-72
2022/03/20 09:42:13;;;;;;;10.32;5.05;;;;;;;;;;4982332;27;100234;-72
2022/03/20 09:44:40;;;;;;;7.55;4.28;;;;;;;;;;4981047;27;100240;-71
2022/03/20 09:47:16;;;;;;;10.23;5.40;;;;;;;;;;5014859;27;100692;-72
2022/03/20 09:49:47;;;;;;;7.90;4.60;;;;;;;;;;5015933;27;100188;-71
2022/03/20 09:52:14;;;;;;;9.32;5.00;;;;;;;;;;5015151;27;100126;-72
2022/03/20 09:54:41;;;;;;;9.85;4.68;;;;;;;;;;5013961;27;100758;-72
2022/03/20 09:57:09;;;;;;;9.02;4.20;;;;;;;;;;5013455;27;100695;-72
2022/03/20 09:59:37;;;;;;;9.10;5.00;;;;;;;;;;5014619;27;100137;-72
2022/03/20 10:02:05;;;;;;;8.77;4.38;;;;;;;;;;5014386;27;103853;-72
2022/03/20 10:05:04;;;;;;;7.97;4.88;;;;;;;;;;5032659;27;100199;-72
2022/03/20 10:07:35;;;;;;;10.10;4.40;;;;;;;;;;4997532;27;102597;-72
2022/03/20 10:10:16;;;;;;;9.85;5.05;;;;;;;;;;5032673;27;100196;-71
2022/03/20 10:12:49;;;;;;;10.25;4.38;;;;;;;;;;4997569;27;100266;-72
2022/03/20 10:15:35;;;;;;;8.82;4.80;;;;;;;;;;4997498;27;101097;-73
2022/03/20 10:18:06;;;;;;;10.02;4.68;;;;;;;;;;5032795;27;101692;-72
2022/03/20 10:20:49;;;;;;;7.40;4.10;;;;;;;;;;5014655;27;100154;-71
2022/03/20 10:23:36;;;;;;;8.15;4.90;;;;;;;;;;4999694;27;100221;-72
2022/03/20 10:26:07;;;;;;;9.45;4.38;;;;;;;;;;5013213;27;100227;-71
2022/03/20 10:28:38;;;;;;;9.27;4.28;;;;;;;;;;5015247;27;102537;-72
2022/03/20 10:31:15;;;;;;;9.07;4.30;;;;;;;;;;5015019;27;102905;-72
2022/03/20 10:33:43;;;;;;;8.70;4.32;;;;;;;;;;5015541;27;100125;-72
2022/03/20 10:36:19;;;;;;;9.43;4.10;;;;;;;;;;5014772;27;100586;-71
2022/03/20 10:38:49;;;;;;;11.23;4.32;;;;;;;;;;5015463;27;100725;-71
2022/03/20 10:41:34;;;;;;;8.35;4.00;;;;;;;;;;4998678;27;100233;-72
2022/03/20 10:44:25;;;;;;;6.65;3.45;;;;;;;;;;5019095;27;101694;-72
2022/03/20 10:46:59;;;;;;;8.30;4.15;;;;;;;;;;4981341;27;103415;-72
2022/03/20 10:49:27;;;;;;;6.18;3.40;;;;;;;;;;4998261;27;100603;-71
2022/03/20 10:52:04;;;;;;;8.73;3.15;;;;;;;;;;4997636;27;100634;-72
2022/03/20 10:54:41;;;;;;;7.60;3.60;;;;;;;;;;5015505;27;100052;-72
2022/03/20 10:57:09;;;;;;;7.22;3.45;;;;;;;;;;5032515;27;100262;-72
2022/03/20 10:59:36;;;;;;;6.80;3.80;;;;;;;;;;4998314;27;103365;-72
2022/03/20 11:02:05;;;;;;;10.00;4.03;;;;;;;;;;5014597;27;100307;-73
2022/03/20 11:04:33;;;;;;;6.03;3.10;;;;;;;;;;5032894;27;100081;-71
2022/03/20 11:07:01;;;;;;;6.80;3.58;;;;;;;;;;5032953;27;100290;-74
2022/03/20 11:09:27;;;;;;;7.10;3.83;;;;;;;;;;4998719;27;100553;-71
2022/03/20 11:11:58;;;;;;;14.43;7.55;;;;;;;;;;5032554;27;100348;-71
2022/03/20 11:14:26;;;;;;;23.63;9.82;;;;;;;;;;5043546;27;100120;-71
2022/03/20 11:17:04;;;;;;;11.90;6.93;;;;;;;;;;5052002;27;100490;-71
2022/03/20 11:19:31;;;;;;;10.75;4.70;;;;;;;;;;5051958;27;100656;-72
2022/03/20 11:22:12;;;;;;;9.27;4.57;;;;;;;;;;5002099;27;100093;-72
2022/03/20 11:24:40;;;;;;;8.80;4.97;;;;;;;;;;5035601;27;100196;-72
2022/03/20 11:27:08;;;;;;;9.65;4.78;;;;;;;;;;5030685;27;100176;-73
2022/03/20 11:29:55;;;;;;;10.45;5.70;;;;;;;;;;4981168;27;102676;-71
2022/03/20 11:32:22;;;;;;;12.73;7.65;;;;;;;;;;4999268;27;100248;-73
2022/03/20 11:34:49;;;;;;;12.95;7.35;;;;;;;;;;5015280;27;100076;-71
2022/03/20 11:37:16;;;;;;;13.98;7.43;;;;;;;;;;5014558;27;100204;-72
2022/03/20 11:40:09;;;;;;;12.27;7.07;;;;;;;;;;5013767;27;100666;-72
2022/03/20 11:42:35;;;;;;;15.45;7.88;;;;;;;;;;5031882;27;100117;-72
2022/03/20 11:45:03;;;;;;;13.07;7.68;;;;;;;;;;4997539;27;100192;-72
2022/03/20 11:47:31;;;;;;;14.95;8.00;;;;;;;;;;5031854;27;100259;-71
2022/03/20 11:50:07;;;;;;;16.38;8.27;;;;;;;;;;4997147;27;100679;-71
2022/03/20 11:52:58;;;;;;;17.10;8.45;;;;;;;;;;5032140;27;102538;-71
2022/03/20 11:55:38;;;;;;;14.77;6.85;;;;;;;;;;4998241;27;102444;-71
2022/03/20 11:58:17;;;;;;;17.30;7.47;;;;;;;;;;5014901;27;100923;-72
2022/03/20 12:00:44;;;;;;;11.70;6.95;;;;;;;;;;5013601;27;100713;-72
2022/03/20 12:03:14;;;;;;;12.57;7.25;;;;;;;;;;5032517;27;100163;-71
2022/03/20 12:06:30;;;;;;;10.90;6.22;;;;;;;;;;5031264;27;100289;-71
2022/03/20 12:09:18;;;;;;;8.15;5.13;;;;;;;;;;4989519;27;100538;-70
2022/03/20 12:12:00;;;;;;;11.73;5.97;;;;;;;;;;5031828;27;100659;-71
2022/03/20 12:14:34;;;;;;;14.13;6.05;;;;;;;;;;5014009;27;100607;-71
2022/03/20 12:17:01;;;;;;;;;;;;;;;;;;4998628;27;100014;-72
2022/03/20 12:19:53;;;;;;;8.13;4.75;;;;;;;;;;5032216;27;100236;-72
2022/03/20 12:22:25;;;;;;;12.27;6.95;;;;;;;;;;5013563;27;100744;-72
2022/03/20 12:24:54;;;;;;;13.57;6.50;;;;;;;;;;5012968;27;100102;-72
2022/03/20 12:27:22;;;;;;;14.30;7.70;;;;;;;;;;5032088;27;100154;-71
2022/03/20 12:29:59;;;;;;;13.45;7.18;;;;;;;;;;5031677;27;100244;-72
2022/03/20 12:32:26;;;;;;;14.48;7.45;;;;;;;;;;5014325;27;100550;-69
2022/03/20 12:34:56;;;;;;;14.55;7.63;;;;;;;;;;5000834;27;100263;-69
2022/03/20 12:37:33;;;;;;;13.52;7.88;;;;;;;;;;5052129;27;100089;-72
2022/03/20 12:40:02;;;;;;;13.75;7.20;;;;;;;;;;5016511;27;101067;-71
2022/03/20 12:42:30;;;;;;;14.32;7.32;;;;;;;;;;5033305;27;103068;-71
2022/03/20 12:44:57;;;;;;;12.07;6.93;;;;;;;;;;5052037;27;101712;-71
2022/03/20 12:47:26;;;;;;;14.73;7.72;;;;;;;;;;5025329;27;101520;-71
2022/03/20 12:49:58;;;;;;;11.82;7.35;;;;;;;;;;5012959;27;100389;-71
2022/03/20 12:52:25;;;;;;;13.77;7.75;;;;;;;;;;5014347;27;100671;-71
2022/03/20 12:54:56;;;;;;;13.65;7.10;;;;;;;;;;5031918;27;100320;-71
2022/03/20 12:57:44;;;;;;;12.07;6.30;;;;;;;;;;5000368;27;100306;-71
2022/03/20 13:00:25;;;;;;;11.70;6.80;;;;;;;;;;5017278;28;102261;-71
2022/03/20 13:03:07;;;;;;;14.65;7.53;;;;;;;;;;5028002;27;100684;-71
2022/03/20 13:05:48;;;;;;;14.20;7.32;;;;;;;;;;5031772;27;100220;-71
2022/03/20 13:08:44;;;;;;;17.33;8.15;;;;;;;;;;5031591;27;101305;-71
2022/03/20 13:14:12;;;;;;;12.80;7.22;;;;;;;;;;4983527;27;100592;-71
2022/03/20 13:16:55;;;;;;;14.63;8.82;;;;;;;;;;5018023;27;100181;-71
2022/03/20 13:19:37;;;;;;;15.90;8.73;;;;;;;;;;5016998;27;100145;-71
2022/03/20 13:22:08;;;;;;;14.90;8.60;;;;;;;;;;5017157;27;100182;-71
2022/03/20 13:24:38;;;;;;;17.02;8.55;;;;;;;;;;5016498;27;101198;-73
2022/03/20 13:27:07;;;;;;;16.90;8.70;;;;;;;;;;5033778;27;100023;-71
2022/03/20 13:29:36;;;;;;;15.82;8.68;;;;;;;;;;5033208;27;100227;-71
2022/03/20 13:32:08;;;;;;;12.23;7.97;;;;;;;;;;5015831;27;100665;-71
2022/03/20 13:34:47;;;;;;;17.10;8.55;;;;;;;;;;4982650;27;103181;-71
2022/03/20 13:37:21;;;;;;;13.30;7.22;;;;;;;;;;5000931;27;100141;-71
2022/03/20 13:39:51;;;;;;;12.85;7.28;;;;;;;;;;4997585;27;100058;-71
2022/03/20 13:42:19;;;;;;;12.85;7.55;;;;;;;;;;5016141;27;100240;-70
2022/03/20 13:44:47;;;;;;;15.68;7.55;;;;;;;;;;5052705;27;101522;-71
2022/03/20 13:47:14;;;;;;;14.52;7.53;;;;;;;;;;5032780;28;100197;-71
2022/03/20 13:49:41;;;;;;;12.93;7.28;;;;;;;;;;5016307;27;100052;-70
2022/03/20 13:52:10;;;;;;;11.20;7.85;;;;;;;;;;4998199;27;100125;-71
2022/03/20 13:54:40;;;;;;;14.93;7.28;;;;;;;;;;4999792;27;100877;-71
2022/03/20 13:57:12;;;;;;;14.57;7.15;;;;;;;;;;4999908;27;100221;-70
2022/03/20 14:00:11;;;;;;;16.70;7.78;;;;;;;;;;5000441;27;100264;-71
2022/03/20 14:02:51;;;;;;;16.15;7.88;;;;;;;;;;5033051;27;102745;-71
2022/03/20 14:05:27;;;;;;;16.05;7.55;;;;;;;;;;5015979;27;100564;-71
2022/03/20 14:08:21;;;;;;;14.93;7.07;;;;;;;;;;5001248;27;100088;-71
2022/03/20 14:10:48;;;;;;;13.50;7.28;;;;;;;;;;5031057;27;100752;-71
2022/03/20 14:13:32;;;;;;;14.13;7.53;;;;;;;;;;5034005;27;100575;-71
2022/03/20 14:16:03;;;;;;;11.32;6.93;;;;;;;;;;4997952;27;100633;-71
2022/03/20 14:18:30;;;;;;;11.45;6.75;;;;;;;;;;5033807;27;100029;-70
2022/03/20 14:21:11;;;;;;;12.48;7.07;;;;;;;;;;5016472;27;100008;-71
2022/03/20 14:24:07;;;;;;;13.05;6.15;;;;;;;;;;5015265;27;100305;-71
2022/03/20 14:26:37;;;;;;;14.40;7.00;;;;;;;;;;5017877;27;101174;-71
2022/03/20 14:29:09;;;;;;;11.18;6.90;;;;;;;;;;5016512;27;100211;-71
2022/03/20 14:40:13;;;;;;;10.75;6.63;;;;;;;;;;5018667;27;100165;-71
2022/03/20 14:42:40;;;;;;;13.57;7.57;;;;;;;;;;5033678;27;100374;-71
2022/03/20 14:45:08;;;;;;;13.27;7.32;;;;;;;;;;5032899;27;100189;-71
2022/03/20 14:47:35;;;;;;;15.40;7.80;;;;;;;;;;5015682;28;101061;-71
2022/03/20 14:50:04;;;;;;;15.45;8.55;;;;;;;;;;5033382;27;100569;-71
2022/03/20 14:52:31;;;;;;;15.38;7.93;;;;;;;;;;4999571;27;100053;-71
2022/03/20 14:55:01;;;;;;;14.82;7.80;;;;;;;;;;5015280;27;100772;-72
2022/03/20 14:57:29;;;;;;;16.88;8.68;;;;;;;;;;4999978;27;100606;-74
2022/03/20 14:59:56;;;;;;;15.85;8.25;;;;;;;;;;5015379;27;100218;-71
2022/03/20 15:02:22;;;;;;;14.05;8.20;;;;;;;;;;5015836;27;100219;-71
2022/03/20 15:04:50;;;;;;;17.25;8.82;;;;;;;;;;4999023;27;100326;-71
2022/03/20 15:07:17;;;;;;;16.77;8.35;;;;;;;;;;4998435;27;100674;-71
2022/03/20 15:12:30;;;;;;;14.73;7.65;;;;;;;;;;5004042;27;100378;-71
2022/03/20 15:14:57;;;;;;;14.88;8.32;;;;;;;;;;5014798;27;100202;-71
2022/03/20 15:17:24;;;;;;;18.08;8.50;;;;;;;;;;4998262;27;101815;-71
2022/03/20 15:19:51;;;;;;;14.32;8.05;;;;;;;;;;5015330;27;100174;-71
2022/03/20 15:22:18;;;;;;;18.95;9.57;;;;;;;;;;5015453;27;100095;-72